createdAt,value
2018-06-22T00:02:21.223Z,0.13
2018-06-22T00:04:49.378Z,0.10
2018-06-22T00:07:17.507Z,0.00
2018-06-22T00:09:45.640Z,0.03
2018-06-22T00:12:13.773Z,0.10
2018-06-22T00:14:41.980Z,0.07
2018-06-22T00:17:10.108Z,0.10
2018-06-22T00:19:38.274Z,0.10
2018-06-22T00:22:06.419Z,0.10
2018-06-22T00:24:34.530Z,0.00
2018-06-22T00:27:03.066Z,0.00
2018-06-22T00:29:31.232Z,0.10
2018-06-22T00:31:59.404Z,0.10
2018-06-22T00:34:27.540Z,0.00
2018-06-22T00:36:55.661Z,0.10
2018-06-22T00:39:23.977Z,0.10
2018-06-22T00:41:52.081Z,0.20
2018-06-22T00:44:20.205Z,0.10
2018-06-22T00:46:48.369Z,0.00
2018-06-22T00:49:16.505Z,0.03
2018-06-22T00:51:44.632Z,0.20
2018-06-22T00:54:15.524Z,0.10
2018-06-22T00:56:43.648Z,0.00
2018-06-22T00:59:12.358Z,0.10
2018-06-22T01:01:40.576Z,0.00
2018-06-22T01:04:09.331Z,0.00
2018-06-22T01:06:37.564Z,0.10
2018-06-22T01:09:07.104Z,0.03
2018-06-22T01:11:35.282Z,0.03
2018-06-22T01:14:03.833Z,0.03
2018-06-22T01:16:31.981Z,0.10
2018-06-22T01:19:00.092Z,0.10
2018-06-22T01:21:28.313Z,0.10
2018-06-22T01:23:56.420Z,0.10
2018-06-22T01:26:24.619Z,0.10
2018-06-22T01:28:57.045Z,0.00
2018-06-22T01:31:25.190Z,0.10
2018-06-22T01:33:53.317Z,0.00
2018-06-22T01:36:21.458Z,0.00
2018-06-22T01:38:49.583Z,0.10
2018-06-22T01:41:17.720Z,0.07
2018-06-22T01:43:45.976Z,0.03
2018-06-22T01:46:14.090Z,0.00
2018-06-22T01:48:42.288Z,0.10
2018-06-22T01:51:10.391Z,0.10
2018-06-22T01:53:38.507Z,0.00
2018-06-22T01:56:06.632Z,0.10
2018-06-22T01:58:34.771Z,0.00
2018-06-22T02:01:02.900Z,0.00
2018-06-22T02:03:31.052Z,0.10
2018-06-22T02:05:59.208Z,0.10
2018-06-22T02:08:27.636Z,0.10
2018-06-22T02:10:55.741Z,0.00
2018-06-22T02:13:23.857Z,0.20
2018-06-22T02:15:52.021Z,0.20
2018-06-22T02:18:20.160Z,0.07
2018-06-22T02:20:48.291Z,0.03
2018-06-22T02:23:16.462Z,0.10
2018-06-22T02:25:44.623Z,0.00
2018-06-22T02:28:12.823Z,0.20
2018-06-22T02:30:40.941Z,0.00
2018-06-22T02:33:09.320Z,0.03
2018-06-22T02:35:37.442Z,0.07
2018-06-22T02:38:05.593Z,0.00
2018-06-22T02:40:33.763Z,0.00
2018-06-22T02:43:01.877Z,0.03
2018-06-22T02:45:30.029Z,0.00
2018-06-22T02:47:58.236Z,0.07
2018-06-22T02:50:26.561Z,0.13
2018-06-22T02:52:54.745Z,0.20
2018-06-22T02:55:23.378Z,0.00
2018-06-22T02:57:51.533Z,0.10
2018-06-22T03:00:19.672Z,0.00
2018-06-22T03:02:47.824Z,0.20
2018-06-22T03:05:16.045Z,0.10
2018-06-22T03:07:44.236Z,0.20
2018-06-22T03:10:12.378Z,0.20
2018-06-22T03:12:40.821Z,0.10
2018-06-22T03:15:08.978Z,0.20
2018-06-22T03:17:37.167Z,0.00
2018-06-22T03:20:05.769Z,0.03
2018-06-22T03:22:33.941Z,0.00
2018-06-22T03:25:02.062Z,0.10
2018-06-22T03:27:30.343Z,0.10
2018-06-22T03:29:58.468Z,0.10
2018-06-22T03:32:26.679Z,0.00
2018-06-22T03:34:56.290Z,0.10
2018-06-22T03:37:24.405Z,0.07
2018-06-22T03:39:52.879Z,0.20
2018-06-22T03:42:21.001Z,0.10
2018-06-22T03:44:49.193Z,0.03
2018-06-22T03:47:17.354Z,0.10
2018-06-22T03:49:45.487Z,0.17
2018-06-22T03:52:13.624Z,0.20
2018-06-22T03:54:41.746Z,0.10
2018-06-22T03:57:09.861Z,0.00
2018-06-22T03:59:37.993Z,0.00
2018-06-22T04:02:06.186Z,0.10
2018-06-22T04:04:34.370Z,0.07
2018-06-22T04:07:02.486Z,0.20
2018-06-22T04:09:30.682Z,0.17
2018-06-22T04:11:59.221Z,0.00
2018-06-22T04:14:27.345Z,0.10
2018-06-22T04:16:55.698Z,0.00
2018-06-22T04:19:23.833Z,0.10
2018-06-22T04:21:51.970Z,0.10
2018-06-22T04:24:20.185Z,0.20
2018-06-22T04:26:48.323Z,0.00
2018-06-22T04:29:18.205Z,0.20
2018-06-22T04:31:46.402Z,0.10
2018-06-22T04:34:15.160Z,0.10
2018-06-22T04:36:43.325Z,0.07
2018-06-22T04:39:12.745Z,0.00
2018-06-22T04:41:41.279Z,0.10
2018-06-22T04:44:09.589Z,0.00
2018-06-22T04:46:37.871Z,0.10
2018-06-22T04:49:06.032Z,0.00
2018-06-22T04:51:34.154Z,0.20
2018-06-22T04:54:02.582Z,0.10
2018-06-22T04:56:31.408Z,0.10
2018-06-22T04:58:59.786Z,0.00
2018-06-22T05:01:28.271Z,0.30
2018-06-22T05:03:56.417Z,0.20
2018-06-22T05:06:24.618Z,0.00
2018-06-22T05:08:52.793Z,0.20
2018-06-22T05:11:20.973Z,0.17
2018-06-22T05:13:49.152Z,0.00
2018-06-22T05:16:17.708Z,0.20
2018-06-22T05:18:46.016Z,0.10
2018-06-22T05:21:14.225Z,0.10
2018-06-22T05:23:42.395Z,0.10
2018-06-22T05:26:10.563Z,0.10
2018-06-22T05:28:38.708Z,0.13
2018-06-22T05:31:06.828Z,0.00
2018-06-22T05:33:34.952Z,0.10
2018-06-22T05:36:03.162Z,0.10
2018-06-22T05:38:31.412Z,0.00
2018-06-22T05:40:59.563Z,0.03
2018-06-22T05:43:27.680Z,0.10
2018-06-22T05:45:56.104Z,0.20
2018-06-22T05:48:24.252Z,0.10
2018-06-22T05:50:52.479Z,0.20
2018-06-22T05:53:20.640Z,0.10
2018-06-22T05:55:48.813Z,0.30
2018-06-22T05:58:16.946Z,0.10
2018-06-22T06:00:45.308Z,0.10
2018-06-22T06:03:13.438Z,0.07
2018-06-22T06:05:41.561Z,0.07
2018-06-22T06:08:09.768Z,0.10
2018-06-22T06:10:37.915Z,0.20
2018-06-22T06:13:06.972Z,0.10
2018-06-22T06:15:35.254Z,0.30
2018-06-22T06:18:03.636Z,0.10
2018-06-22T06:20:32.427Z,0.27
2018-06-22T06:23:00.594Z,0.10
2018-06-22T06:25:28.808Z,0.30
2018-06-22T06:27:56.965Z,0.63
2018-06-22T06:30:25.137Z,0.40
2018-06-22T06:32:53.813Z,0.30
2018-06-22T06:35:21.964Z,0.30
2018-06-22T06:37:50.093Z,0.23
2018-06-22T06:40:18.897Z,0.30
2018-06-22T06:42:47.021Z,0.20
2018-06-22T06:45:15.158Z,0.30
2018-06-22T06:47:43.368Z,0.23
2018-06-22T06:50:12.031Z,0.20
2018-06-22T06:52:40.279Z,0.10
2018-06-22T06:55:08.486Z,0.50
2018-06-22T06:57:36.633Z,0.40
2018-06-22T07:00:05.012Z,0.50
2018-06-22T07:02:33.239Z,0.40
2018-06-22T07:05:01.384Z,0.43
2018-06-22T07:07:29.553Z,0.40
2018-06-22T07:09:57.718Z,0.40
2018-06-22T07:12:25.916Z,0.40
2018-06-22T07:14:54.045Z,0.40
2018-06-22T07:17:22.372Z,0.50
2018-06-22T07:19:50.558Z,0.30
2018-06-22T07:22:19.116Z,0.40
2018-06-22T07:24:47.637Z,0.33
2018-06-22T07:27:15.745Z,0.50
2018-06-22T07:29:44.179Z,0.50
2018-06-22T07:32:12.427Z,0.40
2018-06-22T07:34:41.139Z,0.70
2018-06-22T07:37:09.313Z,0.23
2018-06-22T07:39:37.440Z,0.40
2018-06-22T07:42:05.856Z,0.40
2018-06-22T07:44:34.002Z,0.70
2018-06-22T07:47:02.349Z,0.37
2018-06-22T07:49:30.533Z,0.33
2018-06-22T07:51:58.644Z,0.40
2018-06-22T07:54:26.864Z,0.50
2018-06-22T07:56:54.972Z,0.40
2018-06-22T07:59:23.104Z,0.40
2018-06-22T08:01:51.292Z,0.50
2018-06-22T08:04:19.420Z,0.30
2018-06-22T08:06:47.653Z,0.40
2018-06-22T08:09:15.827Z,0.20
2018-06-22T08:11:44.064Z,0.60
2018-06-22T08:14:12.257Z,0.40
2018-06-22T08:16:40.498Z,0.60
2018-06-22T08:19:08.649Z,0.50
2018-06-22T08:21:36.901Z,0.60
2018-06-22T08:24:05.213Z,0.40
2018-06-22T08:26:33.325Z,0.40
2018-06-22T08:29:01.728Z,0.47
2018-06-22T08:31:29.901Z,0.27
2018-06-22T08:33:58.040Z,0.40
2018-06-22T08:36:26.208Z,0.50
2018-06-22T08:39:02.196Z,1.03
2018-06-22T08:41:31.266Z,0.43
2018-06-22T08:44:39.997Z,0.40
2018-06-22T08:53:13.517Z,0.37
2018-06-22T08:55:45.205Z,0.60
2018-06-22T09:17:51.905Z,0.40
2018-06-22T09:20:37.557Z,0.30
2018-06-22T09:23:12.529Z,0.30
2018-06-22T09:28:54.172Z,0.37
2018-06-22T09:31:37.028Z,0.50
2018-06-22T09:34:11.760Z,0.43
2018-06-22T09:36:46.742Z,0.40
2018-06-22T10:49:50.139Z,0.50
2018-06-22T10:55:34.899Z,0.60
2018-06-22T11:19:03.621Z,0.67
2018-06-22T11:21:38.555Z,0.50
2018-06-22T11:55:47.181Z,0.03
2018-06-22T11:58:15.960Z,0.20
2018-06-22T12:00:44.232Z,0.30
2018-06-22T12:03:12.969Z,0.57
2018-06-22T12:05:41.849Z,0.40
2018-06-22T12:08:10.211Z,0.40
2018-06-22T12:10:38.997Z,0.30
2018-06-22T12:13:08.049Z,0.20
2018-06-22T12:15:37.316Z,0.30
2018-06-22T12:18:06.906Z,0.23
2018-06-22T12:20:35.605Z,0.17
2018-06-22T12:23:04.096Z,0.50
2018-06-22T12:25:32.511Z,0.80
2018-06-22T12:28:01.477Z,0.60
2018-06-22T12:30:29.891Z,0.70
2018-06-22T12:32:58.967Z,0.47
2018-06-22T12:35:27.127Z,0.43
2018-06-22T12:37:55.321Z,0.10
2018-06-22T12:40:24.112Z,0.30
2018-06-22T12:42:52.993Z,0.20
2018-06-22T12:45:21.183Z,0.23
2018-06-22T12:47:49.669Z,0.20
2018-06-22T12:50:19.385Z,0.17
2018-06-22T12:52:48.065Z,0.10
2018-06-22T12:55:16.305Z,0.20
2018-06-22T12:57:44.574Z,0.30
2018-06-22T13:00:13.125Z,0.30
2018-06-22T13:02:41.502Z,0.20
2018-06-22T13:05:09.889Z,0.03
2018-06-22T13:07:38.840Z,0.17
2018-06-22T13:10:07.202Z,0.10
2018-06-22T13:12:36.056Z,0.10
2018-06-22T13:15:05.078Z,0.10
2018-06-22T13:17:34.146Z,0.20
2018-06-22T13:20:02.489Z,0.10
2018-06-22T13:22:34.301Z,0.30
2018-06-22T13:25:02.464Z,0.13
2018-06-22T13:27:30.761Z,0.20
2018-06-22T13:30:00.286Z,0.20
2018-06-22T13:32:29.310Z,0.00
2018-06-22T13:34:58.814Z,0.03
2018-06-22T13:37:27.892Z,0.13
2018-06-22T13:39:56.812Z,0.20
2018-06-22T13:42:25.875Z,0.20
2018-06-22T13:44:54.951Z,0.10
2018-06-22T13:47:23.974Z,0.20
2018-06-22T13:49:56.336Z,0.03
2018-06-22T13:52:26.052Z,0.10
2018-06-22T13:54:55.869Z,0.10
2018-06-22T13:57:25.273Z,0.10
2018-06-22T13:59:54.685Z,0.10
2018-06-22T14:02:24.401Z,0.03
2018-06-22T14:04:58.618Z,0.10
2018-06-22T14:07:27.793Z,0.10
2018-06-22T14:09:55.996Z,0.40
2018-06-22T14:12:24.753Z,0.00
2018-06-22T14:14:52.872Z,0.10
2018-06-22T14:17:22.413Z,0.10
2018-06-22T14:19:50.593Z,0.50
2018-06-22T14:22:18.823Z,0.70
2018-06-22T14:24:47.036Z,0.43
2018-06-22T14:27:15.324Z,0.47
2018-06-22T14:29:44.018Z,0.30
2018-06-22T14:32:12.338Z,0.30
2018-06-22T14:34:41.014Z,0.20
2018-06-22T14:37:10.244Z,0.10
2018-06-22T14:39:38.988Z,0.30
2018-06-22T14:42:07.948Z,0.10
2018-06-22T14:44:36.231Z,0.00
2018-06-22T14:47:05.122Z,0.60
2018-06-22T14:49:33.422Z,0.70
2018-06-22T14:52:02.792Z,0.90
2018-06-22T14:54:37.588Z,0.70
2018-06-22T14:57:11.126Z,0.70
2018-06-22T14:59:44.641Z,0.40
2018-06-22T15:02:18.686Z,0.67
2018-06-22T15:04:52.284Z,0.20
2018-06-22T15:07:26.865Z,0.63
2018-06-22T15:09:56.399Z,0.40
2018-06-22T15:12:24.596Z,0.20
2018-06-22T15:14:53.514Z,0.40
2018-06-22T15:17:22.243Z,0.47
2018-06-22T15:19:50.496Z,0.40
2018-06-22T15:22:18.715Z,0.77
2018-06-22T15:24:46.967Z,0.13
2018-06-22T15:27:15.728Z,0.20
2018-06-22T15:29:44.190Z,0.10
2018-06-22T15:32:13.413Z,0.20
2018-06-22T15:34:47.799Z,0.30
2018-06-22T15:37:21.377Z,0.10
2018-06-22T15:39:55.006Z,0.10
2018-06-22T15:42:28.440Z,0.30
2018-06-22T15:45:02.247Z,0.00
2018-06-22T15:47:36.513Z,0.60
2018-06-22T15:50:10.697Z,0.30
2018-06-22T15:52:45.162Z,0.10
2018-06-22T15:55:18.212Z,0.08
2018-06-22T15:57:47.109Z,0.07
2018-06-22T16:00:16.342Z,0.00
2018-06-22T16:02:50.095Z,0.00
2018-06-22T16:05:18.724Z,0.10
2018-06-22T16:07:47.736Z,0.00
2018-06-22T16:10:17.669Z,0.00
2018-06-22T16:12:48.186Z,0.10
2018-06-22T16:15:22.047Z,0.10
2018-06-22T16:17:57.848Z,0.00
2018-06-22T16:20:31.793Z,0.00
2018-06-22T16:23:06.167Z,0.00
2018-06-22T16:25:40.806Z,0.20
2018-06-22T16:28:10.795Z,0.10
2018-06-22T16:30:40.457Z,0.10
2018-06-22T16:33:10.458Z,0.30
2018-06-22T16:35:43.649Z,0.10
2018-06-22T16:38:15.512Z,0.10
2018-06-22T16:40:45.124Z,0.10
2018-06-22T16:43:13.916Z,0.00
2018-06-22T16:45:44.553Z,0.10
2018-06-22T16:48:14.316Z,0.00
2018-06-22T16:50:44.286Z,0.10
2018-06-22T16:53:13.553Z,0.10
2018-06-22T16:55:44.745Z,0.20
2018-06-22T16:58:18.852Z,0.03
2018-06-22T17:00:54.164Z,0.00
2018-06-22T17:03:28.614Z,0.07
2018-06-22T17:05:59.865Z,0.00
2018-06-22T17:08:34.998Z,0.00
2018-06-22T17:11:10.648Z,0.00
2018-06-22T17:13:44.851Z,0.10
2018-06-22T17:16:19.388Z,0.20
2018-06-22T17:18:51.278Z,0.30
2018-06-22T17:21:24.548Z,0.23
2018-06-22T17:23:55.589Z,0.20
2018-06-22T17:26:25.408Z,0.20
2018-06-22T17:39:49.316Z,0.10
2018-06-22T17:53:10.812Z,0.20
2018-06-22T17:58:36.026Z,0.10
2018-06-22T18:01:11.169Z,0.20
2018-06-22T18:20:59.461Z,0.10
2018-06-22T18:23:29.951Z,0.00
2018-06-22T18:26:00.422Z,0.30
2018-06-22T18:28:29.623Z,0.00
2018-06-22T18:30:58.878Z,0.10
2018-06-22T18:33:28.029Z,0.00
2018-06-22T18:35:58.760Z,0.10
2018-06-22T18:44:59.698Z,0.10
2018-06-22T18:47:28.954Z,0.03
2018-06-22T18:50:07.938Z,0.00
2018-06-22T18:52:42.861Z,0.00
2018-06-22T19:06:51.102Z,0.17
2018-06-22T19:09:22.477Z,0.10
2018-06-22T19:11:52.576Z,0.10
2018-06-22T19:14:23.137Z,0.10
2018-06-22T19:16:53.641Z,0.10
2018-06-22T19:19:23.715Z,0.20
2018-06-22T19:21:52.992Z,0.30
2018-06-22T19:24:22.067Z,0.20
2018-06-22T19:26:51.845Z,0.30
2018-06-22T19:29:22.260Z,0.23
2018-06-22T19:31:51.927Z,0.17
2018-06-22T19:34:24.442Z,0.20
2018-06-22T19:36:53.805Z,0.10
2018-06-22T19:39:25.516Z,0.10
2018-06-22T19:41:54.359Z,0.20
2018-06-22T19:44:28.278Z,0.27
2018-06-22T19:47:02.119Z,0.13
2018-06-22T19:49:35.777Z,0.10
2018-06-22T19:52:09.296Z,0.20
2018-06-22T19:54:37.598Z,0.67
2018-06-22T19:57:05.781Z,0.67
2018-06-22T19:59:34.684Z,1.03
2018-06-22T20:02:07.635Z,0.20
2018-06-22T20:05:08.558Z,0.10
2018-06-22T20:07:37.955Z,0.10
2018-06-22T20:10:11.761Z,0.20
2018-06-22T20:12:41.169Z,0.00
2018-06-22T20:15:10.368Z,0.10
2018-06-22T20:17:44.179Z,0.00
2018-06-22T20:20:15.635Z,0.00
2018-06-22T20:22:45.602Z,0.30
2018-06-22T20:25:20.482Z,0.13
2018-06-22T20:27:50.502Z,0.03
2018-06-22T20:53:55.235Z,0.10
2018-06-22T20:56:23.769Z,0.03
2018-06-22T20:58:53.163Z,0.10
2018-06-22T21:01:21.472Z,0.03
2018-06-22T21:03:51.020Z,0.00
2018-06-22T21:06:19.910Z,0.00
2018-06-22T21:08:49.406Z,0.00
2018-06-22T21:11:20.010Z,0.10
2018-06-22T21:13:48.952Z,0.10
2018-06-22T21:16:18.313Z,0.10
2018-06-22T21:18:46.468Z,0.00
2018-06-22T21:21:20.985Z,0.00
2018-06-22T21:23:50.637Z,0.20
2018-06-22T21:26:19.510Z,0.10
2018-06-22T21:28:53.441Z,0.10
2018-06-22T21:31:27.060Z,0.10
2018-06-22T21:34:00.792Z,0.10
2018-06-22T21:36:34.745Z,0.20
2018-06-22T21:39:05.368Z,0.00
2018-06-22T21:41:34.435Z,0.10
2018-06-22T21:44:03.184Z,0.10
2018-06-22T21:46:31.426Z,0.10
2018-06-22T21:49:00.602Z,0.20
2018-06-22T21:51:29.581Z,0.10
2018-06-22T21:53:58.680Z,0.10
2018-06-22T21:56:28.259Z,0.00
2018-06-22T21:58:56.417Z,0.10
2018-06-22T22:01:25.255Z,0.20
2018-06-22T22:03:53.398Z,0.20
2018-06-22T22:06:22.411Z,0.20
2018-06-22T22:08:50.729Z,0.00
2018-06-22T22:11:20.170Z,0.10
2018-06-22T22:13:49.085Z,0.23
2018-06-22T22:16:34.971Z,0.10
2018-06-22T22:19:06.728Z,0.37
2018-06-22T22:21:42.198Z,0.30
2018-06-22T23:00:03.446Z,0.30
2018-06-22T23:11:41.154Z,0.20
2018-06-22T23:40:53.822Z,0.40
